sensor_id;sensor_type;location;lat;lon;timestamp;pressure;altitude;pressure_sealevel;temperature;humidity
74633;BME280;63139;52.018;8.552;2024-03-02T00:00:42;99259.78;;;6.96;100.00
74633;BME280;63139;52.018;8.552;2024-03-02T00:03:11;99256.66;;;6.92;100.00
74633;BME280;63139;52.018;8.552;2024-03-02T00:05:41;99261.09;;;6.92;100.00
74633;BME280;63139;52.018;8.552;2024-03-02T00:08:09;99250.75;;;6.90;100.00
74633;BME280;63139;52.018;8.552;2024-03-02T00:10:38;99255.06;;;6.83;100.00
74633;BME280;63139;52.018;8.552;2024-03-02T00:13:07;99260.72;;;6.80;100.00
74633;BME280;63139;52.018;8.552;2024-03-02T00:15:46;99263.34;;;6.80;100.00
74633;BME280;63139;52.018;8.552;2024-03-02T00:18:18;99256.44;;;6.79;100.00
74633;BME280;63139;52.018;8.552;2024-03-02T00:20:47;99256.44;;;6.79;100.00
74633;BME280;63139;52.018;8.552;2024-03-02T00:23:16;99257.41;;;6.78;100.00
74633;BME280;63139;52.018;8.552;2024-03-02T00:25:48;99255.63;;;6.79;100.00
74633;BME280;63139;52.018;8.552;2024-03-02T00:28:18;99248.53;;;6.79;100.00
74633;BME280;63139;52.018;8.552;2024-03-02T00:30:58;99250.81;;;6.82;100.00
74633;BME280;63139;52.018;8.552;2024-03-02T00:33:27;99246.03;;;6.86;100.00
74633;BME280;63139;52.018;8.552;2024-03-02T00:35:57;99246.03;;;6.86;100.00
74633;BME280;63139;52.018;8.552;2024-03-02T00:38:27;99241.94;;;6.83;100.00
74633;BME280;63139;52.018;8.552;2024-03-02T00:40:56;99237.16;;;6.87;100.00
74633;BME280;63139;52.018;8.552;2024-03-02T00:43:41;99231.94;;;6.79;100.00
74633;BME280;63139;52.018;8.552;2024-03-02T00:46:16;99233.22;;;6.83;100.00
74633;BME280;63139;52.018;8.552;2024-03-02T00:48:55;99237.47;;;6.84;100.00
74633;BME280;63139;52.018;8.552;2024-03-02T00:51:25;99226.31;;;6.82;100.00
74633;BME280;63139;52.018;8.552;2024-03-02T00:53:55;99229.44;;;6.85;100.00
74633;BME280;63139;52.018;8.552;2024-03-02T00:56:24;99212.53;;;6.80;100.00
74633;BME280;63139;52.018;8.552;2024-03-02T00:58:53;99225.97;;;6.85;100.00
74633;BME280;63139;52.018;8.552;2024-03-02T01:01:22;99213.97;;;6.82;100.00
74633;BME280;63139;52.018;8.552;2024-03-02T01:03:50;99214.19;;;6.81;100.00
74633;BME280;63139;52.018;8.552;2024-03-02T01:06:21;99215.34;;;6.78;100.00
74633;BME280;63139;52.018;8.552;2024-03-02T01:08:50;99210.25;;;6.77;100.00
74633;BME280;63139;52.018;8.552;2024-03-02T01:11:19;99211.88;;;6.78;100.00
74633;BME280;63139;52.018;8.552;2024-03-02T01:13:49;99212.22;;;6.75;100.00
74633;BME280;63139;52.018;8.552;2024-03-02T01:16:18;99225.56;;;6.73;100.00
74633;BME280;63139;52.018;8.552;2024-03-02T01:18:48;99224.44;;;6.68;100.00
74633;BME280;63139;52.018;8.552;2024-03-02T01:21:17;99234.34;;;6.66;100.00
74633;BME280;63139;52.018;8.552;2024-03-02T01:23:45;99229.41;;;6.62;100.00
74633;BME280;63139;52.018;8.552;2024-03-02T01:26:13;99215.81;;;6.59;100.00
74633;BME280;63139;52.018;8.552;2024-03-02T01:28:41;99228.31;;;6.57;100.00
74633;BME280;63139;52.018;8.552;2024-03-02T01:31:08;99223.91;;;6.49;100.00
74633;BME280;63139;52.018;8.552;2024-03-02T01:33:36;99221.78;;;6.45;100.00
74633;BME280;63139;52.018;8.552;2024-03-02T01:36:06;99214.91;;;6.44;100.00
74633;BME280;63139;52.018;8.552;2024-03-02T01:38:35;99213.44;;;6.41;100.00
74633;BME280;63139;52.018;8.552;2024-03-02T01:41:03;99214.25;;;6.42;100.00
74633;BME280;63139;52.018;8.552;2024-03-02T01:43:31;99217.88;;;6.41;100.00
74633;BME280;63139;52.018;8.552;2024-03-02T01:45:59;99218.19;;;6.38;100.00
74633;BME280;63139;52.018;8.552;2024-03-02T01:48:27;99211.13;;;6.38;100.00
74633;BME280;63139;52.018;8.552;2024-03-02T01:50:55;99208.72;;;6.37;100.00
74633;BME280;63139;52.018;8.552;2024-03-02T01:53:25;99212.31;;;6.36;100.00
74633;BME280;63139;52.018;8.552;2024-03-02T01:55:54;99199.34;;;6.34;100.00
74633;BME280;63139;52.018;8.552;2024-03-02T01:58:22;99204.59;;;6.34;100.00
74633;BME280;63139;52.018;8.552;2024-03-02T02:00:50;99203.28;;;6.30;100.00
74633;BME280;63139;52.018;8.552;2024-03-02T02:03:18;99206.75;;;6.31;100.00
74633;BME280;63139;52.018;8.552;2024-03-02T02:05:46;99202.66;;;6.28;100.00
74633;BME280;63139;52.018;8.552;2024-03-02T02:08:14;99202.66;;;6.28;100.00
74633;BME280;63139;52.018;8.552;2024-03-02T02:10:44;99197.25;;;6.30;100.00
74633;BME280;63139;52.018;8.552;2024-03-02T02:13:13;99190.50;;;6.27;100.00
74633;BME280;63139;52.018;8.552;2024-03-02T02:15:42;99188.72;;;6.28;100.00
74633;BME280;63139;52.018;8.552;2024-03-02T02:18:10;99186.91;;;6.28;100.00
74633;BME280;63139;52.018;8.552;2024-03-02T02:20:38;99182.47;;;6.29;100.00
74633;BME280;63139;52.018;8.552;2024-03-02T02:23:07;99170.78;;;6.31;100.00
74633;BME280;63139;52.018;8.552;2024-03-02T02:25:37;99167.31;;;6.31;100.00
74633;BME280;63139;52.018;8.552;2024-03-02T02:28:06;99160.63;;;6.28;100.00
74633;BME280;63139;52.018;8.552;2024-03-02T02:30:33;99167.16;;;6.32;100.00
74633;BME280;63139;52.018;8.552;2024-03-02T02:33:01;99168.63;;;6.35;100.00
74633;BME280;63139;52.018;8.552;2024-03-02T02:35:30;99160.75;;;6.35;100.00
74633;BME280;63139;52.018;8.552;2024-03-02T02:37:58;99165.19;;;6.34;100.00
74633;BME280;63139;52.018;8.552;2024-03-02T02:40:28;99151.38;;;6.32;100.00
74633;BME280;63139;52.018;8.552;2024-03-02T02:42:57;99152.38;;;6.31;100.00
74633;BME280;63139;52.018;8.552;2024-03-02T02:45:26;99144.50;;;6.31;100.00
74633;BME280;63139;52.018;8.552;2024-03-02T02:47:54;99140.88;;;6.32;100.00
74633;BME280;63139;52.018;8.552;2024-03-02T02:50:22;99139.06;;;6.33;100.00
74633;BME280;63139;52.018;8.552;2024-03-02T02:52:50;99139.44;;;6.30;100.00
74633;BME280;63139;52.018;8.552;2024-03-02T02:55:18;99134.16;;;6.30;100.00
74633;BME280;63139;52.018;8.552;2024-03-02T02:57:48;99128.72;;;6.31;100.00
74633;BME280;63139;52.018;8.552;2024-03-02T03:00:17;99138.41;;;6.31;100.00
74633;BME280;63139;52.018;8.552;2024-03-02T03:02:47;99132.81;;;6.34;100.00
74633;BME280;63139;52.018;8.552;2024-03-02T03:05:17;99133.81;;;6.33;100.00
74633;BME280;63139;52.018;8.552;2024-03-02T03:07:45;99132.81;;;6.34;100.00
74633;BME280;63139;52.018;8.552;2024-03-02T03:10:17;99131.00;;;6.34;100.00
74633;BME280;63139;52.018;8.552;2024-03-02T03:12:45;99129.19;;;6.35;100.00
74633;BME280;63139;52.018;8.552;2024-03-02T03:15:15;99124.13;;;6.33;100.00
74633;BME280;63139;52.018;8.552;2024-03-02T03:17:44;99125.91;;;6.33;100.00
74633;BME280;63139;52.018;8.552;2024-03-02T03:20:14;99122.31;;;6.34;100.00
74633;BME280;63139;52.018;8.552;2024-03-02T03:22:42;99128.72;;;6.31;100.00
74633;BME280;63139;52.018;8.552;2024-03-02T03:25:10;99129.38;;;6.33;100.00
74633;BME280;63139;52.018;8.552;2024-03-02T03:27:39;99128.38;;;6.34;100.00
74633;BME280;63139;52.018;8.552;2024-03-02T03:30:09;99131.81;;;6.35;100.00
74633;BME280;63139;52.018;8.552;2024-03-02T03:32:39;99123.28;;;6.33;100.00
74633;BME280;63139;52.018;8.552;2024-03-02T03:35:08;99123.28;;;6.33;100.00
74633;BME280;63139;52.018;8.552;2024-03-02T03:37:36;99123.13;;;6.34;100.00
74633;BME280;63139;52.018;8.552;2024-03-02T03:40:05;99118.22;;;6.31;100.00
74633;BME280;63139;52.018;8.552;2024-03-02T03:42:37;99131.19;;;6.33;100.00
74633;BME280;63139;52.018;8.552;2024-03-02T03:45:06;99130.34;;;6.32;100.00
74633;BME280;63139;52.018;8.552;2024-03-02T03:47:34;99133.16;;;6.31;100.00
74633;BME280;63139;52.018;8.552;2024-03-02T03:50:05;99135.63;;;6.32;100.00
74633;BME280;63139;52.018;8.552;2024-03-02T03:52:34;99133.97;;;6.31;100.00
74633;BME280;63139;52.018;8.552;2024-03-02T03:55:02;99131.34;;;6.31;100.00
74633;BME280;63139;52.018;8.552;2024-03-02T03:57:32;99135.78;;;6.31;100.00
74633;BME280;63139;52.018;8.552;2024-03-02T04:00:00;99127.44;;;6.27;100.00
74633;BME280;63139;52.018;8.552;2024-03-02T04:02:37;99129.53;;;6.32;100.00
74633;BME280;63139;52.018;8.552;2024-03-02T04:05:07;99137.78;;;6.29;100.00
74633;BME280;63139;52.018;8.552;2024-03-02T04:07:38;99134.34;;;6.28;100.00
74633;BME280;63139;52.018;8.552;2024-03-02T04:10:08;99147.31;;;6.30;100.00
74633;BME280;63139;52.018;8.552;2024-03-02T04:12:36;99136.81;;;6.30;100.00
74633;BME280;63139;52.018;8.552;2024-03-02T04:15:05;99135.97;;;6.29;100.00
74633;BME280;63139;52.018;8.552;2024-03-02T04:17:33;99137.13;;;6.27;100.00
74633;BME280;63139;52.018;8.552;2024-03-02T04:20:03;99143.22;;;6.27;100.00
74633;BME280;63139;52.018;8.552;2024-03-02T04:22:34;99142.22;;;6.28;100.00
74633;BME280;63139;52.018;8.552;2024-03-02T04:25:03;99136.97;;;6.28;100.00
74633;BME280;63139;52.018;8.552;2024-03-02T04:27:33;99141.41;;;6.28;100.00
74633;BME280;63139;52.018;8.552;2024-03-02T04:30:02;99125.63;;;6.28;100.00
74633;BME280;63139;52.018;8.552;2024-03-02T04:32:31;99138.94;;;6.26;100.00
74633;BME280;63139;52.018;8.552;2024-03-02T04:34:59;99140.75;;;6.26;100.00
74633;BME280;63139;52.018;8.552;2024-03-02T04:37:27;99147.97;;;6.23;100.00
74633;BME280;63139;52.018;8.552;2024-03-02T04:39:56;99146.72;;;6.19;100.00
74633;BME280;63139;52.018;8.552;2024-03-02T04:42:24;99140.97;;;6.16;100.00
74633;BME280;63139;52.018;8.552;2024-03-02T04:44:52;99143.31;;;6.11;100.00
74633;BME280;63139;52.018;8.552;2024-03-02T04:47:20;99153.34;;;6.07;100.00
74633;BME280;63139;52.018;8.552;2024-03-02T04:49:49;99149.09;;;6.06;100.00
74633;BME280;63139;52.018;8.552;2024-03-02T04:52:17;99146.63;;;6.05;100.00
74633;BME280;63139;52.018;8.552;2024-03-02T04:54:45;99157.94;;;6.05;100.00
74633;BME280;63139;52.018;8.552;2024-03-02T04:57:32;99158.94;;;6.04;100.00
74633;BME280;63139;52.018;8.552;2024-03-02T05:00:00;99161.56;;;6.04;100.00
74633;BME280;63139;52.018;8.552;2024-03-02T05:02:28;99162.56;;;6.03;100.00
74633;BME280;63139;52.018;8.552;2024-03-02T05:04:56;99164.53;;;6.01;100.00
74633;BME280;63139;52.018;8.552;2024-03-02T05:07:24;99161.56;;;6.04;100.00
74633;BME280;63139;52.018;8.552;2024-03-02T05:09:53;99172.72;;;6.06;100.00
74633;BME280;63139;52.018;8.552;2024-03-02T05:12:21;99174.38;;;6.07;100.00
74633;BME280;63139;52.018;8.552;2024-03-02T05:15:15;99171.91;;;6.06;100.00
74633;BME280;63139;52.018;8.552;2024-03-02T05:17:43;99174.16;;;6.09;100.00
74633;BME280;63139;52.018;8.552;2024-03-02T05:20:11;99178.44;;;6.10;100.00
74633;BME280;63139;52.018;8.552;2024-03-02T05:22:39;99176.31;;;6.13;100.00
74633;BME280;63139;52.018;8.552;2024-03-02T05:25:07;99171.69;;;6.15;100.00
74633;BME280;63139;52.018;8.552;2024-03-02T05:27:36;99169.69;;;6.17;100.00
74633;BME280;63139;52.018;8.552;2024-03-02T05:30:06;99167.25;;;6.16;100.00
74633;BME280;63139;52.018;8.552;2024-03-02T05:32:35;99184.81;;;6.15;100.00
74633;BME280;63139;52.018;8.552;2024-03-02T05:35:05;99191.09;;;6.14;100.00
74633;BME280;63139;52.018;8.552;2024-03-02T05:37:33;99187.44;;;6.15;100.00
74633;BME280;63139;52.018;8.552;2024-03-02T05:40:01;99182.38;;;6.14;100.00
74633;BME280;63139;52.018;8.552;2024-03-02T05:42:29;99186.66;;;6.15;100.00
74633;BME280;63139;52.018;8.552;2024-03-02T05:44:57;99181.03;;;6.18;100.00
74633;BME280;63139;52.018;8.552;2024-03-02T05:47:25;99175.59;;;6.19;100.00
74633;BME280;63139;52.018;8.552;2024-03-02T05:49:56;99177.88;;;6.22;100.00
74633;BME280;63139;52.018;8.552;2024-03-02T05:52:23;99176.25;;;6.21;100.00
74633;BME280;63139;52.018;8.552;2024-03-02T05:54:51;99183.78;;;6.24;100.00
74633;BME280;63139;52.018;8.552;2024-03-02T05:57:20;99182.97;;;6.24;100.00
74633;BME280;63139;52.018;8.552;2024-03-02T06:00:04;99184.78;;;6.23;100.00
74633;BME280;63139;52.018;8.552;2024-03-02T06:02:39;99183.63;;;6.26;100.00
74633;BME280;63139;52.018;8.552;2024-03-02T06:05:09;99184.91;;;6.30;100.00
74633;BME280;63139;52.018;8.552;2024-03-02T06:07:37;99178.66;;;6.31;100.00
74633;BME280;63139;52.018;8.552;2024-03-02T06:10:06;99184.56;;;6.33;100.00
74633;BME280;63139;52.018;8.552;2024-03-02T06:12:39;99190.81;;;6.32;100.00
74633;BME280;63139;52.018;8.552;2024-03-02T06:15:08;99187.03;;;6.35;100.00
74633;BME280;63139;52.018;8.552;2024-03-02T06:17:36;99197.16;;;6.38;100.00
74633;BME280;63139;52.018;8.552;2024-03-02T06:20:05;99193.94;;;6.36;100.00
74633;BME280;63139;52.018;8.552;2024-03-02T06:22:36;99203.91;;;6.40;100.00
74633;BME280;63139;52.018;8.552;2024-03-02T06:25:05;99193.22;;;6.42;100.00
74633;BME280;63139;52.018;8.552;2024-03-02T06:27:34;99194.88;;;6.43;100.00
74633;BME280;63139;52.018;8.552;2024-03-02T06:30:04;99212.28;;;6.44;100.00
74633;BME280;63139;52.018;8.552;2024-03-02T06:32:32;99207.66;;;6.46;100.00
74633;BME280;63139;52.018;8.552;2024-03-02T06:35:02;99207.66;;;6.46;100.00
74633;BME280;63139;52.018;8.552;2024-03-02T06:37:31;99204.84;;;6.47;100.00
74633;BME280;63139;52.018;8.552;2024-03-02T06:40:01;99203.53;;;6.51;100.00
74633;BME280;63139;52.018;8.552;2024-03-02T06:42:29;99228.63;;;6.54;100.00
74633;BME280;63139;52.018;8.552;2024-03-02T06:45:00;99229.44;;;6.54;100.00
74633;BME280;63139;52.018;8.552;2024-03-02T06:47:28;99227.66;;;6.55;100.00
74633;BME280;63139;52.018;8.552;2024-03-02T06:49:56;99225.84;;;6.55;100.00
74633;BME280;63139;52.018;8.552;2024-03-02T06:52:25;99230.09;;;6.56;100.00
74633;BME280;63139;52.018;8.552;2024-03-02T06:54:53;99229.94;;;6.58;100.00
74633;BME280;63139;52.018;8.552;2024-03-02T06:57:22;99234.84;;;6.61;100.00
74633;BME280;63139;52.018;8.552;2024-03-02T06:59:51;99234.00;;;6.60;100.00
74633;BME280;63139;52.018;8.552;2024-03-02T07:02:21;99240.09;;;6.61;100.00
74633;BME280;63139;52.018;8.552;2024-03-02T07:04:50;99236.16;;;6.65;100.00
74633;BME280;63139;52.018;8.552;2024-03-02T07:07:21;99238.59;;;6.67;100.00
74633;BME280;63139;52.018;8.552;2024-03-02T07:09:49;99239.06;;;6.70;100.00
74633;BME280;63139;52.018;8.552;2024-03-02T07:12:18;99231.00;;;6.72;100.00
74633;BME280;63139;52.018;8.552;2024-03-02T07:14:47;99230.47;;;6.76;100.00
74633;BME280;63139;52.018;8.552;2024-03-02T07:17:37;99233.59;;;6.80;100.00
74633;BME280;63139;52.018;8.552;2024-03-02T07:20:06;99240.66;;;6.79;100.00
74633;BME280;63139;52.018;8.552;2024-03-02T07:22:34;99244.72;;;6.82;100.00
74633;BME280;63139;52.018;8.552;2024-03-02T07:25:06;99241.94;;;6.83;100.00
74633;BME280;63139;52.018;8.552;2024-03-02T07:27:55;99245.69;;;6.89;100.00
74633;BME280;63139;52.018;8.552;2024-03-02T07:30:26;99242.53;;;6.93;100.00
74633;BME280;63139;52.018;8.552;2024-03-02T07:32:55;99248.06;;;6.98;100.00
74633;BME280;63139;52.018;8.552;2024-03-02T07:35:23;99252.00;;;7.03;100.00
74633;BME280;63139;52.018;8.552;2024-03-02T07:37:54;99254.09;;;7.07;100.00
74633;BME280;63139;52.018;8.552;2024-03-02T07:40:23;99258.81;;;7.12;100.00
74633;BME280;63139;52.018;8.552;2024-03-02T07:42:51;99257.50;;;7.16;100.00
74633;BME280;63139;52.018;8.552;2024-03-02T07:45:19;99251.06;;;7.18;100.00
74633;BME280;63139;52.018;8.552;2024-03-02T07:47:49;99259.69;;;7.27;100.00
74633;BME280;63139;52.018;8.552;2024-03-02T07:50:19;99264.88;;;7.35;100.00
74633;BME280;63139;52.018;8.552;2024-03-02T07:52:47;99267.28;;;7.45;100.00
74633;BME280;63139;52.018;8.552;2024-03-02T07:55:15;99263.59;;;7.54;100.00
74633;BME280;63139;52.018;8.552;2024-03-02T07:57:44;99262.22;;;7.58;100.00
74633;BME280;63139;52.018;8.552;2024-03-02T08:00:12;99261.16;;;7.67;100.00
74633;BME280;63139;52.018;8.552;2024-03-02T08:02:41;99255.63;;;7.76;100.00
74633;BME280;63139;52.018;8.552;2024-03-02T08:05:11;99250.91;;;7.87;100.00
74633;BME280;63139;52.018;8.552;2024-03-02T08:07:39;99256.91;;;7.95;100.00
74633;BME280;63139;52.018;8.552;2024-03-02T08:10:08;99261.91;;;8.05;100.00
74633;BME280;63139;52.018;8.552;2024-03-02T08:12:37;99252.28;;;8.12;100.00
74633;BME280;63139;52.018;8.552;2024-03-02T08:15:06;99256.63;;;8.19;100.00
74633;BME280;63139;52.018;8.552;2024-03-02T08:17:34;99265.72;;;8.32;100.00
74633;BME280;63139;52.018;8.552;2024-03-02T08:22:38;99261.53;;;8.52;100.00
74633;BME280;63139;52.018;8.552;2024-03-02T08:25:06;99268.97;;;8.63;100.00
74633;BME280;63139;52.018;8.552;2024-03-02T08:27:36;99261.94;;;8.70;100.00
74633;BME280;63139;52.018;8.552;2024-03-02T08:30:06;99253.28;;;8.76;100.00
74633;BME280;63139;52.018;8.552;2024-03-02T08:32:35;99264.16;;;8.88;100.00
74633;BME280;63139;52.018;8.552;2024-03-02T08:35:04;99260.38;;;8.97;100.00
74633;BME280;63139;52.018;8.552;2024-03-02T08:37:34;99259.03;;;9.01;100.00
74633;BME280;63139;52.018;8.552;2024-03-02T08:40:05;99260.13;;;9.13;100.00
74633;BME280;63139;52.018;8.552;2024-03-02T08:42:35;99260.47;;;9.25;100.00
74633;BME280;63139;52.018;8.552;2024-03-02T08:45:03;99259.31;;;9.34;100.00
74633;BME280;63139;52.018;8.552;2024-03-02T08:47:32;99262.63;;;9.43;100.00
74633;BME280;63139;52.018;8.552;2024-03-02T08:50:00;99268.59;;;9.51;100.00
74633;BME280;63139;52.018;8.552;2024-03-02T08:52:28;99257.25;;;9.57;100.00
74633;BME280;63139;52.018;8.552;2024-03-02T08:54:56;99270.59;;;9.70;100.00
74633;BME280;63139;52.018;8.552;2024-03-02T08:57:26;99270.63;;;9.77;100.00
74633;BME280;63139;52.018;8.552;2024-03-02T08:59:54;99277.00;;;9.89;100.00
74633;BME280;63139;52.018;8.552;2024-03-02T09:02:23;99279.09;;;10.00;100.00
74633;BME280;63139;52.018;8.552;2024-03-02T09:04:52;99277.13;;;10.09;100.00
74633;BME280;63139;52.018;8.552;2024-03-02T09:07:20;99277.81;;;10.18;100.00
74633;BME280;63139;52.018;8.552;2024-03-02T09:09:48;99273.78;;;10.22;100.00
74633;BME280;63139;52.018;8.552;2024-03-02T09:12:16;99272.81;;;10.29;98.81
74633;BME280;63139;52.018;8.552;2024-03-02T09:14:45;99273.44;;;10.38;97.47
74633;BME280;63139;52.018;8.552;2024-03-02T09:17:15;99272.47;;;10.45;98.28
74633;BME280;63139;52.018;8.552;2024-03-02T09:19:43;99269.44;;;10.48;96.58
74633;BME280;63139;52.018;8.552;2024-03-02T09:22:11;99272.72;;;10.57;94.94
74633;BME280;63139;52.018;8.552;2024-03-02T09:24:40;99260.97;;;10.66;95.36
74633;BME280;63139;52.018;8.552;2024-03-02T09:27:08;99268.72;;;10.74;95.75
74633;BME280;63139;52.018;8.552;2024-03-02T09:29:36;99265.28;;;10.80;94.83
74633;BME280;63139;52.018;8.552;2024-03-02T09:32:07;99269.97;;;10.85;93.71
74633;BME280;63139;52.018;8.552;2024-03-02T09:34:35;99272.63;;;10.92;93.07
74633;BME280;63139;52.018;8.552;2024-03-02T09:37:03;99263.06;;;10.97;90.86
74633;BME280;63139;52.018;8.552;2024-03-02T09:39:31;99265.13;;;11.02;91.11
74633;BME280;63139;52.018;8.552;2024-03-02T09:42:00;99273.06;;;11.08;91.62
74633;BME280;63139;52.018;8.552;2024-03-02T09:44:28;99272.25;;;11.14;89.65
74633;BME280;63139;52.018;8.552;2024-03-02T09:46:56;99276.16;;;11.18;89.90
74633;BME280;63139;52.018;8.552;2024-03-02T09:49:27;99262.91;;;11.25;88.12
74633;BME280;63139;52.018;8.552;2024-03-02T09:51:55;99268.41;;;11.30;87.99
74633;BME280;63139;52.018;8.552;2024-03-02T09:54:23;99276.16;;;11.38;89.75
74633;BME280;63139;52.018;8.552;2024-03-02T09:56:51;99272.91;;;11.43;88.60
74633;BME280;63139;52.018;8.552;2024-03-02T09:59:20;99274.34;;;11.45;87.15
74633;BME280;63139;52.018;8.552;2024-03-02T10:02:07;99268.41;;;11.50;85.42
74633;BME280;63139;52.018;8.552;2024-03-02T10:04:36;99271.88;;;11.50;85.51
74633;BME280;63139;52.018;8.552;2024-03-02T10:07:12;99273.50;;;11.58;83.41
74633;BME280;63139;52.018;8.552;2024-03-02T10:09:42;99282.28;;;11.65;86.04
74633;BME280;63139;52.018;8.552;2024-03-02T10:12:13;99285.34;;;11.68;84.18
74633;BME280;63139;52.018;8.552;2024-03-02T10:14:42;99284.72;;;11.73;84.40
74633;BME280;63139;52.018;8.552;2024-03-02T10:17:11;99278.63;;;11.79;83.80
74633;BME280;63139;52.018;8.552;2024-03-02T10:19:41;99293.31;;;11.82;83.67
74633;BME280;63139;52.018;8.552;2024-03-02T10:22:09;99283.13;;;11.79;84.17
74633;BME280;63139;52.018;8.552;2024-03-02T10:24:40;99281.69;;;11.83;84.11
74633;BME280;63139;52.018;8.552;2024-03-02T10:27:15;99283.13;;;11.85;81.80
74633;BME280;63139;52.018;8.552;2024-03-02T10:29:46;99284.75;;;11.93;82.92
74633;BME280;63139;52.018;8.552;2024-03-02T10:32:15;99287.81;;;11.90;82.71
74633;BME280;63139;52.018;8.552;2024-03-02T10:34:46;99282.69;;;11.95;83.05
74633;BME280;63139;52.018;8.552;2024-03-02T10:37:15;99285.56;;;12.00;83.14
74633;BME280;63139;52.018;8.552;2024-03-02T10:39:45;99269.44;;;11.95;80.50
74633;BME280;63139;52.018;8.552;2024-03-02T10:42:15;99282.09;;;11.99;82.43
74633;BME280;63139;52.018;8.552;2024-03-02T10:44:44;99279.22;;;12.01;82.38
74633;BME280;63139;52.018;8.552;2024-03-02T10:47:13;99287.19;;;12.08;82.20
74633;BME280;63139;52.018;8.552;2024-03-02T10:49:46;99268.38;;;12.09;82.30
74633;BME280;63139;52.018;8.552;2024-03-02T10:52:14;99270.44;;;12.14;82.38
74633;BME280;63139;52.018;8.552;2024-03-02T10:54:42;99269.78;;;12.18;80.88
74633;BME280;63139;52.018;8.552;2024-03-02T10:57:11;99255.72;;;12.18;79.82
74633;BME280;63139;52.018;8.552;2024-03-02T10:59:47;99261.63;;;12.20;79.21
74633;BME280;63139;52.018;8.552;2024-03-02T11:02:21;99263.06;;;12.22;78.36
74633;BME280;63139;52.018;8.552;2024-03-02T11:04:54;99262.25;;;12.22;77.49
74633;BME280;63139;52.018;8.552;2024-03-02T11:07:24;99257.50;;;12.30;78.74
74633;BME280;63139;52.018;8.552;2024-03-02T11:09:57;99258.28;;;12.37;79.51
74633;BME280;63139;52.018;8.552;2024-03-02T11:12:29;99258.91;;;12.39;78.97
74633;BME280;63139;52.018;8.552;2024-03-02T11:14:58;99257.69;;;12.42;78.76
74633;BME280;63139;52.018;8.552;2024-03-02T11:17:27;99252.97;;;12.44;78.18
74633;BME280;63139;52.018;8.552;2024-03-02T11:19:57;99260.09;;;12.50;78.66
74633;BME280;63139;52.018;8.552;2024-03-02T11:22:25;99255.41;;;12.52;78.96
74633;BME280;63139;52.018;8.552;2024-03-02T11:24:55;99263.38;;;12.52;79.24
74633;BME280;63139;52.018;8.552;2024-03-02T11:27:58;99269.25;;;12.54;76.59
74633;BME280;63139;52.018;8.552;2024-03-02T11:30:49;99265.75;;;12.60;76.46
74633;BME280;63139;52.018;8.552;2024-03-02T11:33:25;99265.56;;;12.62;76.25
74633;BME280;63139;52.018;8.552;2024-03-02T11:36:00;99261.88;;;12.63;76.46
74633;BME280;63139;52.018;8.552;2024-03-02T11:38:32;99267.34;;;12.68;76.00
74633;BME280;63139;52.018;8.552;2024-03-02T11:41:02;99261.44;;;12.72;76.39
74633;BME280;63139;52.018;8.552;2024-03-02T11:43:37;99260.41;;;12.73;76.04
74633;BME280;63139;52.018;8.552;2024-03-02T11:46:06;99263.03;;;12.80;76.31
74633;BME280;63139;52.018;8.552;2024-03-02T11:48:36;99259.72;;;12.84;76.42
74633;BME280;63139;52.018;8.552;2024-03-02T11:51:06;99257.66;;;12.87;76.75
74633;BME280;63139;52.018;8.552;2024-03-02T11:53:35;99260.31;;;12.87;76.43
74633;BME280;63139;52.018;8.552;2024-03-02T11:56:06;99263.81;;;12.87;76.07
74633;BME280;63139;52.018;8.552;2024-03-02T11:58:39;99257.63;;;12.93;76.45
74633;BME280;63139;52.018;8.552;2024-03-02T12:01:08;99251.91;;;12.96;75.43
74633;BME280;63139;52.018;8.552;2024-03-02T12:03:38;99243.94;;;12.96;75.18
74633;BME280;63139;52.018;8.552;2024-03-02T12:06:07;99248.19;;;12.97;75.88
74633;BME280;63139;52.018;8.552;2024-03-02T12:08:36;99247.56;;;13.02;75.44
74633;BME280;63139;52.018;8.552;2024-03-02T12:11:04;99247.94;;;13.05;75.12
74633;BME280;63139;52.018;8.552;2024-03-02T12:13:33;99244.47;;;13.05;73.79
74633;BME280;63139;52.018;8.552;2024-03-02T12:16:02;99247.53;;;13.08;75.53
74633;BME280;63139;52.018;8.552;2024-03-02T12:18:31;99238.91;;;13.13;75.83
74633;BME280;63139;52.018;8.552;2024-03-02T12:20:58;99245.00;;;13.20;75.68
74633;BME280;63139;52.018;8.552;2024-03-02T12:23:34;99240.91;;;13.24;73.95
74633;BME280;63139;52.018;8.552;2024-03-02T12:26:02;99247.63;;;13.27;75.02
74633;BME280;63139;52.018;8.552;2024-03-02T12:28:30;99242.69;;;13.30;74.67
74633;BME280;63139;52.018;8.552;2024-03-02T12:31:01;99235.94;;;13.28;74.17
74633;BME280;63139;52.018;8.552;2024-03-02T12:33:30;99234.72;;;13.30;73.98
74633;BME280;63139;52.018;8.552;2024-03-02T12:35:59;99230.22;;;13.31;73.80
74633;BME280;63139;52.018;8.552;2024-03-02T12:38:28;99230.81;;;13.33;74.30
74633;BME280;63139;52.018;8.552;2024-03-02T12:40:57;99234.81;;;13.42;73.58
74633;BME280;63139;52.018;8.552;2024-03-02T12:43:30;99226.09;;;13.59;71.90
74633;BME280;63139;52.018;8.552;2024-03-02T12:45:58;99225.75;;;13.74;72.39
74633;BME280;63139;52.018;8.552;2024-03-02T12:48:26;99226.78;;;13.73;70.75
74633;BME280;63139;52.018;8.552;2024-03-02T12:50:54;99229.47;;;13.91;71.09
74633;BME280;63139;52.018;8.552;2024-03-02T12:53:24;99213.94;;;13.88;69.95
74633;BME280;63139;52.018;8.552;2024-03-02T12:55:55;99223.41;;;14.03;70.42
74633;BME280;63139;52.018;8.552;2024-03-02T12:58:25;99212.47;;;14.11;70.50
74633;BME280;63139;52.018;8.552;2024-03-02T13:01:05;99213.28;;;14.11;69.22
74633;BME280;63139;52.018;8.552;2024-03-02T13:03:36;99207.72;;;14.13;69.95
74633;BME280;63139;52.018;8.552;2024-03-02T13:06:07;99207.88;;;14.18;69.66
74633;BME280;63139;52.018;8.552;2024-03-02T13:08:35;99205.59;;;14.21;69.87
74633;BME280;63139;52.018;8.552;2024-03-02T13:11:03;99209.28;;;14.20;69.80
74633;BME280;63139;52.018;8.552;2024-03-02T13:13:35;99212.03;;;14.14;69.52
74633;BME280;63139;52.018;8.552;2024-03-02T13:16:08;99215.25;;;14.16;69.83